Latest Coastal Weather Observations for Rottnest Island

IDW60701

Issued at 9:13 pm WST Monday 20 February 2017 (issued every 10 minutes, with the page automatically refreshed every 10 minutes)

About coastal observations | Map of coastal stations | Coastal observations for WA | Marine services | Other Formats
Station Details ID: 009193 Name: ROTTNEST ISLAND Lat: -32.01 Lon: 115.50 Height: 43.1 m
Data from the previous 72 hours. | See also: Recent months at Rottnest Island
Date/Time
WST
Temp
°C
Wind Pressure Rain since
9am
mm
Weather Cloud Vis
km
Sea
Height
m
Swell
Dir  Spd
kts
Gust
kts
hPa Trend Height
m
Period
s
Dir
20/09:00pm 19.2 SW 19 24 1013.4 - 0.0 - - - - - - -
20/08:30pm 19.4 SW 19 25 1013.2 - 0.0 - - - - - - -
20/08:00pm 19.2 SW 16 23 1012.6 - 0.0 - - - - - - -
20/07:30pm 19.4 SSW 17 21 1012.0 - 0.0 - - - - - - -
20/07:00pm 19.4 SSW 18 23 1011.6 - 0.0 - - - - - - -
20/06:30pm 19.5 SSW 18 25 1011.2 - 0.0 - - - - - - -
20/06:00pm 19.8 SSW 21 25 1010.9 - 0.0 - - - - - - -
20/05:30pm 20.9 SW 23 27 1010.9 - 0.0 - - - - - - -
20/05:00pm 21.6 SW 22 26 1010.9 - 0.0 - - - - - - -
20/04:30pm 21.9 SW 20 25 1010.9 - 0.0 - - - - - - -
20/04:00pm 21.9 SW 18 22 1010.8 - 0.0 - - - - - - -
20/03:30pm 21.7 SW 19 23 1010.9 - 0.0 - - - - - - -
20/03:00pm 21.8 SSW 18 21 1011.0 - 0.0 - - - - - - -
20/02:30pm 22.0 SSW 17 22 1011.4 - 0.0 - - - - - - -
20/02:00pm 21.7 SSW 17 22 1012.1 - 0.0 - - - - - - -
20/01:30pm 21.3 SSW 18 22 1012.4 - 0.0 - - - - - - -
20/01:00pm 20.8 SSW 18 22 1012.6 - 0.0 - - - - - - -
20/12:30pm 21.4 SSW 19 23 1012.6 - 0.0 - - - - - - -
20/12:00pm 21.0 SSW 20 24 1012.7 - 0.0 - - - - - - -
20/11:30am 20.7 S 20 25 1013.1 - 0.0 - - - - - - -
20/11:00am 21.2 S 20 24 1013.4 - 0.0 - - - - - - -
20/10:30am 20.9 S 20 24 1013.6 - 0.0 - - - - - - -
20/10:00am 21.1 S 19 24 1013.6 - 0.0 - - - - - - -
20/09:30am 20.6 S 20 25 1013.4 - 0.0 - - - - - - -
20/09:00am 20.7 S 21 26 1013.3 - 0.0 - - - - - - -
20/08:30am 20.4 S 23 28 1013.0 - 0.0 - - - - - - -
20/08:00am 20.1 S 23 29 1012.7 - 0.0 - - - - - - -
20/07:30am 19.3 S 24 30 1012.7 - 0.0 - - - - - - -
20/07:00am 19.2 S 23 28 1012.5 - 0.0 - - - - - - -
20/06:30am 19.0 S 23 27 1012.5 - 0.0 - - - - - - -
20/06:00am 19.1 S 23 28 1012.4 - 0.0 - - - - - - -
20/05:30am 19.3 S 20 25 1012.4 - 0.0 - - - - - - -
20/05:00am 19.5 SSW 21 25 1012.1 - 0.0 - - - - - - -
20/04:30am 19.5 SSW 20 25 1012.0 - 0.0 - - - - - - -
20/04:00am 19.7 SSW 18 21 1011.8 - 0.0 - - - - - - -
20/03:30am 19.8 SSW 18 22 1011.6 - 0.0 - - - - - - -
20/03:00am 19.7 SSW 15 19 1011.8 - 0.0 - - - - - - -
20/02:30am 19.8 S 15 18 1011.9 - 0.0 - - - - - - -
20/02:00am 19.8 S 17 22 1011.9 - 0.0 - - - - - - -
20/01:30am 20.1 SSW 18 22 1012.1 - 0.0 - - - - - - -
20/01:00am 20.2 SSW 19 23 1012.2 - 0.0 - - - - - - -
20/12:30am 20.5 SSW 19 24 1012.6 - 0.0 - - - - - - -
20/12:00am 21.0 SSW 19 25 1012.7 - 0.0 - - - - - - -
 
Date/Time
WST
Temp
°C
Wind Pressure Rain since
9am
mm
Weather Cloud Vis
km
Sea
Height
m
Swell
Dir  Spd
kts
Gust
kts
hPa Trend Height
m
Period
s
Dir
19/11:30pm 21.5 SSW 15 21 1012.6 - 0.0 - - - - - - -
19/11:00pm 21.6 SSW 15 19 1012.7 - 0.0 - - - - - - -
19/10:30pm 21.4 SSW 15 19 1012.9 - 0.0 - - - - - - -
19/10:00pm 21.5 SSW 17 21 1012.8 - 0.0 - - - - - - -
19/09:30pm 21.9 SSW 18 22 1012.7 - 0.0 - - - - - - -
19/09:00pm 22.1 SSW 16 20 1013.0 - 0.0 - - - - - - -
19/08:30pm 22.4 SSW 16 20 1012.7 - 0.0 - - - - - - -
19/08:00pm 22.9 SSW 14 18 1012.3 - 0.0 - - - - - - -
19/07:30pm 23.3 SSW 14 17 1011.9 - 0.0 - - - - - - -
19/07:00pm 24.2 SSW 13 16 1011.8 - 0.0 - - - - - - -
19/06:30pm 25.3 SW 11 13 1011.4 - 0.0 - - - - - - -
19/06:00pm 26.9 SW 9 10 1011.3 - 0.0 - - - - - - -
19/05:30pm 27.9 WSW 10 13 1011.2 - 0.0 - - - - - - -
19/05:00pm 27.9 WNW 10 14 1011.2 - 0.0 - - - - - - -
19/04:30pm 28.4 WNW 10 14 1011.1 - 0.0 - - - - - - -
19/04:00pm 28.8 NW 10 12 1011.4 - 0.0 - - - - - - -
19/03:30pm 30.1 NW 9 11 1011.5 - 0.0 - - - - - - -
19/03:00pm 30.1 NW 10 12 1011.7 - 0.0 - - - - - - -
19/02:30pm 30.4 NW 13 18 1011.9 - 0.0 - - - - - - -
19/02:00pm 32.3 NNW 12 16 1012.0 - 0.0 - - - - - - -
19/01:30pm 30.5 NW 13 16 1012.2 - 0.0 - - - - - - -
19/01:00pm 30.9 NNW 14 17 1012.3 - 0.0 - - - - - - -
19/12:30pm 32.5 NNW 11 13 1012.6 - 0.0 - - - - - - -
19/12:00pm 32.4 NNW 12 15 1012.7 - 0.0 - - - - - - -
19/11:30am 31.5 N 11 14 1013.1 - 0.0 - - - - - - -
19/11:00am 31.2 N 12 16 1013.5 - 0.0 - - - - - - -
19/10:30am 31.0 NNE 13 17 1013.8 - 0.0 - - - - - - -
19/10:00am 29.5 NNE 13 15 1014.0 - 0.0 - - - - - - -
19/09:30am 28.4 NNE 12 16 1014.0 - 0.0 - - - - - - -
19/09:00am 27.7 NE 13 17 1014.1 - 0.0 - - - - - - -
19/08:30am 26.7 NE 13 18 1014.1 - 0.0 - - - - - - -
19/08:00am 25.9 NE 13 17 1014.2 - 0.0 - - - - - - -
19/07:30am 25.4 NE 12 16 1014.4 - 0.0 - - - - - - -
19/07:00am 25.0 NE 12 17 1014.2 - 0.0 - - - - - - -
19/06:30am 24.4 ENE 13 17 1013.9 - 0.0 - - - - - - -
19/06:00am 24.4 ENE 12 17 1013.7 - 0.0 - - - - - - -
19/05:30am 24.5 ENE 12 15 1013.6 - 0.0 - - - - - - -
19/05:00am 24.6 ENE 12 17 1013.5 - 0.0 - - - - - - -
19/04:30am 24.6 ENE 12 17 1013.5 - 0.0 - - - - - - -
19/04:00am 24.8 ENE 12 15 1013.6 - 0.0 - - - - - - -
19/03:30am 24.9 ENE 12 16 1013.7 - 0.0 - - - - - - -
19/03:00am 25.2 ENE 13 17 1013.7 - 0.0 - - - - - - -
19/02:30am 25.2 ENE 12 16 1013.9 - 0.0 - - - - - - -
19/02:00am 25.5 ENE 14 19 1014.1 - 0.0 - - - - - - -
19/01:30am 25.4 ENE 12 15 1014.3 - 0.0 - - - - - - -
19/01:00am 25.8 E 10 13 1014.6 - 0.0 - - - - - - -
19/12:30am 25.9 E 9 12 1014.9 - 0.0 - - - - - - -
19/12:00am 26.6 E 10 13 1015.0 - 0.0 - - - - - - -
 
Date/Time
WST
Temp
°C
Wind Pressure Rain since
9am
mm
Weather Cloud Vis
km
Sea
Height
m
Swell
Dir  Spd
kts
Gust
kts
hPa Trend Height
m
Period
s
Dir
18/11:30pm 26.7 E 11 15 1015.2 - 0.0 - - - - - - -
18/11:00pm 26.2 SE 8 11 1015.4 - 0.0 - - - - - - -
18/10:30pm 26.1 SE 9 12 1015.4 - 0.0 - - - - - - -
18/10:00pm 26.0 SE 10 12 1015.7 - 0.0 - - - - - - -
18/09:30pm 25.9 SE 11 12 1015.8 - 0.0 - - - - - - -
18/09:00pm 26.1 SE 9 11 1015.8 - 0.0 - - - - - - -
18/08:30pm 24.7 SE 9 11 1015.7 - 0.0 - - - - - - -
18/08:00pm 24.5 SSE 11 14 1015.6 - 0.0 - - - - - - -
18/07:30pm 24.3 SSE 10 14 1015.5 - 0.0 - - - - - - -
18/07:00pm 24.4 SSE 10 13 1015.1 - 0.0 - - - - - - -
18/06:30pm 25.7 SSE 11 15 1015.0 - 0.0 - - - - - - -
18/06:00pm 26.2 SSE 11 15 1015.0 - 0.0 - - - - - - -
18/05:30pm 26.3 SSE 11 15 1015.1 - 0.0 - - - - - - -
18/05:00pm 27.8 SSE 10 12 1015.2 - 0.0 - - - - - - -
18/04:30pm 27.7 SSE 8 10 1015.3 - 0.0 - - - - - - -
18/04:00pm 27.9 SSE 8 11 1015.4 - 0.0 - - - - - - -
18/03:30pm 29.3 SSE 8 9 1015.5 - 0.0 - - - - - - -
18/03:00pm 28.3 SSE 9 11 1015.7 - 0.0 - - - - - - -
18/02:30pm 32.6 ESE 11 15 1016.0 - 0.0 - - - - - - -
18/02:00pm 30.9 ESE 13 17 1016.3 - 0.0 - - - - - - -
18/01:30pm 30.9 E 11 16 1016.6 - 0.0 - - - - - - -
18/01:00pm 30.9 E 11 16 1016.9 - 0.0 - - - - - - -
18/12:30pm 29.8 E 11 15 1017.1 - 0.0 - - - - - - -
18/12:00pm 28.7 ENE 12 16 1017.6 - 0.0 - - - - - - -
18/11:30am 28.0 E 11 17 1017.7 - 0.0 - - - - - - -
18/11:00am 26.5 E 13 18 1018.1 - 0.0 - - - - - - -
18/10:30am 25.3 E 14 19 1018.2 - 0.0 - - - - - - -
18/10:00am 24.2 E 14 19 1018.3 - 0.0 - - - - - - -
18/09:30am 23.1 E 14 20 1018.5 - 0.0 - - - - - - -
18/09:00am 22.7 E 15 21 1018.8 - 0.0 - - - - - - -
18/08:30am 21.3 E 18 25 1018.8 - 0.0 - - - - - - -
18/08:00am 20.9 E 17 26 1018.7 - 0.0 - - - - - - -
18/07:30am 20.4 E 18 26 1018.9 - 0.0 - - - - - - -
18/07:00am 19.9 E 12 17 1018.8 - 0.0 - - - - - - -
18/06:30am 19.4 ESE 10 14 1018.8 - 0.0 - - - - - - -
18/06:00am 19.1 E 10 15 1018.5 - 0.0 - - - - - - -
18/05:30am 19.2 E 10 16 1018.1 - 0.0 - - - - - - -
18/05:00am 19.6 E 11 15 1017.9 - 0.0 - - - - - - -
18/04:30am 19.8 E 13 19 1017.8 - 0.0 - - - - - - -
18/04:00am 20.2 E 14 20 1017.6 - 0.0 - - - - - - -
18/03:30am 20.6 E 13 18 1017.6 - 0.0 - - - - - - -
18/03:00am 21.1 E 16 23 1017.6 - 0.0 - - - - - - -
18/02:30am 21.5 E 13 22 1017.6 - 0.0 - - - - - - -
18/02:00am 21.6 E 11 15 1017.8 - 0.0 - - - - - - -
18/01:30am 22.1 ESE 12 16 1017.7 - 0.0 - - - - - - -
18/01:00am 22.5 ESE 13 17 1017.8 - 0.0 - - - - - - -
18/12:30am 22.9 ESE 11 17 1017.9 - 0.0 - - - - - - -
18/12:00am 23.7 ESE 15 20 1017.9 - 0.0 - - - - - - -
 
Date/Time
WST
Temp
°C
Wind Pressure Rain since
9am
mm
Weather Cloud Vis
km
Sea
Height
m
Swell
Dir  Spd
kts
Gust
kts
hPa Trend Height
m
Period
s
Dir
17/11:30pm 23.8 SE 12 18 1017.7 - 0.0 - - - - - - -
17/11:00pm 23.7 ESE 10 13 1017.8 - 0.0 - - - - - - -
17/10:30pm 24.6 ESE 12 16 1017.8 - 0.0 - - - - - - -
17/10:00pm 24.4 ESE 10 14 1018.0 - 0.0 - - - - - - -
17/09:30pm 24.5 ESE 9 13 1017.9 - 0.0 - - - - - - -

Other Formats:

Comma delimited format used in spreadsheet applications
http://www.bom.gov.au/fwo/IDW60701/IDW60701.94602.axf

JavaScript Object Notation format (JSON) in row-major order
http://www.bom.gov.au/fwo/IDW60701/IDW60701.94602.json